Time;durP1;ratioP1;P1;durP2;ratioP2;P2;SDS_P1;SDS_P2;PMS_P1;PMS_P2;Temp;Humidity;BMP_temperature;BMP_pressure;BME280_temperature;BME280_humidity;BME280_pressure;Samples;Min_cycle;Max_cycle;Signal;HPM_P1;HPM_P2
2021/08/28 00:01:35;;;;;;;4.80;0.95;;;13.40;92.70;;;;;;6305772;22;20027;-75
2021/08/28 00:04:02;;;;;;;3.78;0.75;;;13.40;92.90;;;;;;6312754;22;20074;-75
2021/08/28 00:06:30;;;;;;;3.30;0.77;;;13.40;93.00;;;;;;6308592;22;20027;-75
2021/08/28 00:08:57;;;;;;;3.80;1.13;;;13.40;92.90;;;;;;6312729;22;20348;-75
2021/08/28 00:11:24;;;;;;;1.08;0.68;;;13.30;92.90;;;;;;6312688;22;20267;-75
2021/08/28 00:13:52;;;;;;;3.30;0.90;;;13.30;92.90;;;;;;6286109;22;20251;-76
2021/08/28 00:16:19;;;;;;;3.35;0.93;;;13.20;92.90;;;;;;6314551;22;20325;-74
2021/08/28 00:18:48;;;;;;;4.40;1.10;;;13.20;93.10;;;;;;6315132;22;20068;-75
2021/08/28 00:21:17;;;;;;;4.43;1.13;;;13.20;93.20;;;;;;6314596;22;20061;-73
2021/08/28 00:23:44;;;;;;;1.90;0.80;;;13.10;93.20;;;;;;6314856;22;20042;-76
2021/08/28 00:26:11;;;;;;;1.50;0.63;;;12.90;93.10;;;;;;6288566;22;20016;-73
2021/08/28 00:28:39;;;;;;;3.92;0.73;;;12.90;93.10;;;;;;6315628;22;20023;-76
2021/08/28 00:31:07;;;;;;;1.20;0.73;;;12.80;93.30;;;;;;6316261;22;20349;-75
2021/08/28 00:33:34;;;;;;;3.55;0.82;;;12.70;93.30;;;;;;6318105;22;20392;-75
2021/08/28 00:36:05;;;;;;;2.55;0.80;;;12.70;93.40;;;;;;6290939;22;20078;-75
2021/08/28 00:38:32;;;;;;;;;;;12.60;93.50;;;;;;6316495;22;20069;-74
2021/08/28 00:41:03;;;;;;;2.92;1.20;;;12.50;93.60;;;;;;6317935;22;19930;-74
2021/08/28 00:43:36;;;;;;;3.40;1.25;;;12.50;93.80;;;;;;6300535;22;20035;-74
2021/08/28 00:46:03;;;;;;;4.47;1.27;;;12.40;93.70;;;;;;6281797;22;20207;-74
2021/08/28 00:48:30;;;;;;;3.42;0.80;;;12.40;93.70;;;;;;6281822;22;20027;-74
2021/08/28 00:50:58;;;;;;;3.42;0.90;;;12.50;93.90;;;;;;6279473;22;20031;-74
2021/08/28 00:53:27;;;;;;;2.50;1.30;;;12.50;93.90;;;;;;6280808;22;20036;-74
2021/08/28 00:55:54;;;;;;;3.08;1.17;;;12.50;93.70;;;;;;6280143;22;20019;-74
2021/08/28 00:58:22;;;;;;;1.35;0.80;;;12.60;93.80;;;;;;6280457;22;20069;-74
2021/08/28 01:00:54;;;;;;;3.50;1.10;;;12.70;93.60;;;;;;6279276;22;20018;-74
2021/08/28 01:03:27;;;;;;;2.88;1.27;;;12.70;93.60;;;;;;6280647;22;20094;-74
2021/08/28 01:05:59;;;;;;;15.43;1.70;;;12.80;93.60;;;;;;6279793;22;20016;-74
2021/08/28 01:08:41;;;;;;;6.43;1.60;;;12.80;93.40;;;;;;6279637;22;20038;-74
2021/08/28 01:11:41;;;;;;;8.38;1.80;;;12.90;93.60;;;;;;6277146;22;20030;-73
2021/08/28 01:14:15;;;;;;;6.10;1.60;;;12.90;93.50;;;;;;6281127;22;20019;-73
2021/08/28 01:16:53;;;;;;;8.18;1.45;;;12.90;93.30;;;;;;6278410;22;20034;-75
2021/08/28 01:19:42;;;;;;;2.30;1.05;;;12.80;93.10;;;;;;1196253;22;10001912;-75
2021/08/28 01:22:19;;;;;;;6.57;1.55;;;12.80;93.20;;;;;;5869819;22;10000827;-75
2021/08/28 01:25:19;;;;;;;9.88;2.00;;;12.80;93.30;;;;;;6198566;22;20025;-75
2021/08/28 01:28:05;;;;;;;32.78;2.78;;;12.90;93.40;;;;;;6279752;22;20034;-75
2021/08/28 01:30:34;;;;;;;19.88;1.95;;;12.80;93.20;;;;;;6279150;22;20050;-75
2021/08/28 01:33:02;;;;;;;10.77;2.27;;;12.90;93.30;;;;;;6279745;22;20323;-75
2021/08/28 01:35:38;;;;;;;9.70;1.67;;;12.80;93.30;;;;;;6278689;22;20309;-75
2021/08/28 01:38:14;;;;;;;3.28;1.40;;;12.80;93.20;;;;;;6278047;22;20031;-75
2021/08/28 01:40:50;;;;;;;19.13;1.95;;;12.80;93.40;;;;;;6280190;22;20043;-74
2021/08/28 01:43:19;;;;;;;8.52;1.88;;;12.90;93.40;;;;;;6243224;22;1309211;-74
2021/08/28 01:45:52;;;;;;;4.22;1.83;;;12.90;93.40;;;;;;6288239;22;20039;-75
2021/08/28 01:48:19;;;;;;;5.28;1.45;;;12.80;93.20;;;;;;6286894;22;20007;-74
2021/08/28 01:50:51;;;;;;;8.27;1.73;;;12.70;93.00;;;;;;6287373;22;20023;-75
2021/08/28 01:53:22;;;;;;;4.85;1.42;;;12.60;93.10;;;;;;6284812;22;20027;-74
2021/08/28 01:55:51;;;;;;;7.20;1.73;;;12.60;93.10;;;;;;6282505;22;20221;-74
2021/08/28 01:58:23;;;;;;;4.03;1.40;;;12.50;93.10;;;;;;6283551;22;20274;-74
2021/08/28 02:01:01;;;;;;;6.93;1.60;;;12.60;93.40;;;;;;6275768;22;20030;-74
2021/08/28 02:03:42;;;;;;;8.98;1.65;;;12.60;93.30;;;;;;6309064;22;20256;-74
2021/08/28 02:06:15;;;;;;;2.33;1.30;;;12.40;93.40;;;;;;6307051;22;20325;-74
2021/08/28 02:08:51;;;;;;;6.95;1.50;;;12.30;93.10;;;;;;6283175;22;20031;-74
2021/08/28 02:11:24;;;;;;;2.97;1.05;;;12.30;93.60;;;;;;6284028;22;20027;-74
2021/08/28 02:14:01;;;;;;;3.75;1.30;;;12.40;93.80;;;;;;6286376;22;20030;-74
2021/08/28 02:16:40;;;;;;;3.22;1.20;;;12.40;93.40;;;;;;6283008;22;20019;-74
2021/08/28 02:19:12;;;;;;;8.13;1.30;;;12.40;93.60;;;;;;6282903;22;20085;-74
2021/08/28 02:22:00;;;;;;;2.40;1.25;;;12.30;93.30;;;;;;6312171;22;20269;-74
2021/08/28 02:24:51;;;;;;;11.57;1.73;;;12.20;93.40;;;;;;6284983;22;20038;-74
2021/08/28 02:27:27;;;;;;;4.60;1.50;;;12.20;93.80;;;;;;6307783;22;20027;-75
2021/08/28 02:29:58;;;;;;;6.22;1.38;;;12.20;93.80;;;;;;6312388;22;20023;-75
2021/08/28 02:32:28;;;;;;;9.70;1.42;;;12.20;94.00;;;;;;6284069;22;20019;-75
2021/08/28 02:34:57;;;;;;;6.40;1.50;;;12.30;93.80;;;;;;6285170;22;20023;-74
2021/08/28 02:37:26;;;;;;;3.60;1.87;;;12.30;93.80;;;;;;6310294;22;20039;-75
2021/08/28 02:39:55;;;;;;;7.25;1.65;;;12.30;93.70;;;;;;6284439;22;20411;-74
2021/08/28 02:42:23;;;;;;;6.05;1.38;;;12.30;93.30;;;;;;6279284;22;20031;-74
2021/08/28 02:44:54;;;;;;;4.25;1.50;;;12.20;93.30;;;;;;6279403;22;20031;-75
2021/08/28 02:47:24;;;;;;;4.27;1.47;;;12.30;93.50;;;;;;6276223;22;20274;-75
2021/08/28 02:49:57;;;;;;;3.75;1.45;;;12.30;93.60;;;;;;6277446;22;20027;-74
2021/08/28 02:52:47;;;;;;;5.60;1.45;;;12.40;93.60;;;;;;6280181;22;20028;-75
2021/08/28 02:55:16;;;;;;;18.48;1.75;;;12.30;92.90;;;;;;6278618;22;20020;-75
2021/08/28 02:57:53;;;;;;;9.70;1.55;;;12.20;93.30;;;;;;6280321;22;20027;-74
2021/08/28 03:00:22;;;;;;;11.73;1.77;;;12.20;93.20;;;;;;6269491;22;20035;-75
2021/08/28 03:02:51;;;;;;;9.45;1.77;;;12.10;93.50;;;;;;6276527;22;20035;-74
2021/08/28 03:05:21;;;;;;;5.80;1.70;;;12.00;93.60;;;;;;6277964;22;20098;-75
2021/08/28 03:07:51;;;;;;;9.95;1.88;;;12.10;93.70;;;;;;6282773;22;20031;-73
2021/08/28 03:10:21;;;;;;;6.63;1.70;;;12.00;93.20;;;;;;6277035;22;20027;-74
2021/08/28 03:12:48;;;;;;;3.35;1.40;;;11.90;93.60;;;;;;6279976;22;20090;-75
2021/08/28 03:15:16;;;;;;;3.00;1.50;;;11.80;93.60;;;;;;6276032;22;20459;-75
2021/08/28 03:18:02;;;;;;;5.80;1.38;;;11.90;93.80;;;;;;6276819;22;20024;-75
2021/08/28 03:20:32;;;;;;;14.40;2.08;;;11.80;93.60;;;;;;6276796;22;20027;-75
2021/08/28 03:23:01;;;;;;;14.77;2.37;;;11.70;93.80;;;;;;6277338;22;20024;-74
2021/08/28 03:25:31;;;;;;;7.10;1.67;;;11.60;94.20;;;;;;6277098;22;20331;-75
2021/08/28 03:27:59;;;;;;;31.92;2.63;;;11.60;94.10;;;;;;6280578;22;20039;-75
2021/08/28 03:30:29;;;;;;;13.10;1.70;;;11.60;94.20;;;;;;6276445;22;20121;-75
2021/08/28 03:32:57;;;;;;;14.38;2.00;;;11.40;94.40;;;;;;6277589;22;20039;-75
2021/08/28 03:35:25;;;;;;;15.55;1.75;;;11.40;94.30;;;;;;6275349;22;20026;-75
2021/08/28 03:37:56;;;;;;;11.73;1.73;;;11.40;94.40;;;;;;6278251;22;20306;-75
2021/08/28 03:40:25;;;;;;;4.68;1.58;;;11.40;94.40;;;;;;6277871;22;20367;-75
2021/08/28 03:42:53;;;;;;;2.78;1.55;;;11.40;94.20;;;;;;6277131;22;20011;-74
2021/08/28 03:45:23;;;;;;;2.63;1.38;;;11.40;94.10;;;;;;6276627;22;20334;-74
2021/08/28 03:47:50;;;;;;;12.63;1.83;;;11.40;94.10;;;;;;6277598;22;20016;-75
2021/08/28 03:50:18;;;;;;;5.60;1.30;;;11.40;94.20;;;;;;6278467;22;20032;-73
2021/08/28 03:52:50;;;;;;;2.75;1.38;;;11.50;94.10;;;;;;6277861;22;20027;-74
2021/08/28 03:55:19;;;;;;;22.70;2.05;;;11.60;94.10;;;;;;6275625;22;20364;-75
2021/08/28 03:57:48;;;;;;;2.42;1.38;;;11.50;93.80;;;;;;6278947;22;20023;-75
2021/08/28 04:00:17;;;;;;;8.73;2.22;;;11.60;93.50;;;;;;6272008;22;20046;-74
2021/08/28 04:02:46;;;;;;;6.22;2.08;;;11.60;93.60;;;;;;6278617;22;20046;-73
2021/08/28 04:05:19;;;;;;;3.13;1.52;;;11.70;93.40;;;;;;6278778;22;20027;-74
2021/08/28 04:07:47;;;;;;;4.22;1.58;;;11.70;93.20;;;;;;6279551;22;20319;-74
2021/08/28 04:10:14;;;;;;;16.50;2.05;;;11.70;93.20;;;;;;6278895;22;20050;-74
2021/08/28 04:12:44;;;;;;;10.15;1.77;;;11.70;93.20;;;;;;6281452;22;20250;-75
2021/08/28 04:15:16;;;;;;;7.82;1.95;;;11.70;93.20;;;;;;6279179;22;20066;-73
2021/08/28 04:18:02;;;;;;;5.60;2.30;;;11.80;93.20;;;;;;6282038;22;20084;-75
2021/08/28 04:20:30;;;;;;;9.70;1.77;;;11.70;93.00;;;;;;6278887;22;20039;-74
2021/08/28 04:23:04;;;;;;;5.18;1.33;;;11.70;92.90;;;;;;6280756;22;20031;-74
2021/08/28 04:25:50;;;;;;;9.60;1.50;;;11.70;93.20;;;;;;6277571;22;20370;-74
2021/08/28 04:28:29;;;;;;;8.65;1.33;;;11.70;93.30;;;;;;6275352;22;20213;-75
2021/08/28 04:30:57;;;;;;;13.68;1.60;;;11.70;93.40;;;;;;6277761;22;20023;-75
2021/08/28 04:33:24;;;;;;;4.25;1.40;;;11.70;93.20;;;;;;6278231;22;20034;-74
2021/08/28 04:35:51;;;;;;;5.32;1.73;;;11.60;93.30;;;;;;6280884;22;20020;-74
2021/08/28 04:38:19;;;;;;;8.77;2.13;;;11.60;93.60;;;;;;6277028;22;20346;-74
2021/08/28 04:40:53;;;;;;;5.40;1.50;;;11.60;93.60;;;;;;6277615;22;20020;-74
2021/08/28 04:43:22;;;;;;;3.80;1.73;;;11.60;93.60;;;;;;6278682;22;20024;-73
2021/08/28 04:46:11;;;;;;;6.28;1.63;;;11.70;93.80;;;;;;6281991;22;20032;-74
2021/08/28 04:48:43;;;;;;;14.23;1.83;;;11.60;93.40;;;;;;6251703;22;20215;-74
2021/08/28 04:51:49;;;;;;;4.63;1.65;;;11.60;93.60;;;;;;6235275;22;20085;-74
2021/08/28 04:54:18;;;;;;;8.38;1.95;;;11.60;93.40;;;;;;6249544;22;20032;-74
2021/08/28 04:56:49;;;;;;;12.10;1.65;;;11.60;93.40;;;;;;6251699;22;20022;-73
2021/08/28 04:59:17;;;;;;;3.67;1.70;;;11.70;93.60;;;;;;6247421;22;20089;-73
2021/08/28 05:01:46;;;;;;;14.88;2.13;;;11.80;93.60;;;;;;6273759;22;20054;-73
2021/08/28 05:04:27;;;;;;;2.88;1.38;;;11.70;93.30;;;;;;6252876;22;20031;-74
2021/08/28 05:06:55;;;;;;;2.75;1.38;;;11.70;93.40;;;;;;6253204;22;20026;-74
2021/08/28 05:09:28;;;;;;;3.00;1.48;;;11.70;93.20;;;;;;6252775;22;20011;-75
2021/08/28 05:11:56;;;;;;;6.07;1.83;;;11.70;93.10;;;;;;6251100;22;20046;-74
2021/08/28 05:14:25;;;;;;;6.90;1.65;;;11.70;93.20;;;;;;6253577;22;20390;-74
2021/08/28 05:16:58;;;;;;;4.00;1.77;;;11.70;92.80;;;;;;6254933;22;20022;-74
2021/08/28 05:19:47;;;;;;;4.78;2.00;;;11.70;92.50;;;;;;6251783;22;20390;-74
2021/08/28 05:22:34;;;;;;;4.00;1.83;;;11.70;92.70;;;;;;6279994;22;20074;-74
2021/08/28 05:25:28;;;;;;;3.40;1.48;;;11.70;92.40;;;;;;6271668;22;20058;-74
2021/08/28 05:27:56;;;;;;;4.70;1.35;;;11.60;92.40;;;;;;6281608;22;20242;-74
2021/08/28 05:30:23;;;;;;;4.60;1.65;;;11.60;92.60;;;;;;6253439;22;20363;-74
2021/08/28 05:32:51;;;;;;;4.55;2.17;;;11.70;92.70;;;;;;6278393;22;20023;-75
2021/08/28 05:35:20;;;;;;;3.70;1.70;;;11.70;92.70;;;;;;6253449;22;20061;-74
2021/08/28 05:38:09;;;;;;;3.40;1.40;;;11.70;92.70;;;;;;6253916;22;20349;-74
2021/08/28 05:40:39;;;;;;;4.28;1.48;;;11.70;92.60;;;;;;6253649;22;20016;-73
2021/08/28 05:43:06;;;;;;;2.25;1.17;;;11.70;92.50;;;;;;6296393;22;20032;-74
2021/08/28 05:45:52;;;;;;;3.03;1.50;;;11.70;92.60;;;;;;6312373;22;20390;-73
2021/08/28 05:48:21;;;;;;;7.18;1.63;;;11.80;92.30;;;;;;6283888;22;20027;-74
2021/08/28 05:50:48;;;;;;;2.90;1.33;;;11.80;92.10;;;;;;6311125;22;20034;-74
2021/08/28 05:53:16;;;;;;;2.83;1.38;;;11.90;92.50;;;;;;6282215;22;20027;-75
2021/08/28 05:55:43;;;;;;;3.13;1.63;;;11.80;92.10;;;;;;6281101;22;20038;-74
2021/08/28 05:58:11;;;;;;;3.40;1.58;;;11.80;92.00;;;;;;6284601;22;20031;-72
2021/08/28 06:00:39;;;;;;;2.50;1.40;;;11.90;92.40;;;;;;6278727;22;20038;-73
2021/08/28 06:03:07;;;;;;;2.53;1.23;;;11.90;92.20;;;;;;6284277;22;20050;-75
2021/08/28 06:05:38;;;;;;;6.93;1.77;;;12.00;92.20;;;;;;6283485;22;20027;-75
2021/08/28 06:08:28;;;;;;;2.90;1.50;;;12.00;92.00;;;;;;6310290;22;20061;-74
2021/08/28 06:11:08;;;;;;;2.85;1.50;;;11.90;92.10;;;;;;6309179;22;20019;-74
2021/08/28 06:14:01;;;;;;;3.72;1.83;;;11.90;92.30;;;;;;6304658;22;20080;-74
2021/08/28 06:16:39;;;;;;;4.18;1.90;;;12.00;92.10;;;;;;6278570;22;20023;-73
2021/08/28 06:19:16;;;;;;;3.67;1.63;;;12.00;92.10;;;;;;6282229;22;20070;-73
2021/08/28 06:21:46;;;;;;;4.63;1.90;;;12.10;92.10;;;;;;6281262;22;20033;-75
2021/08/28 06:24:14;;;;;;;4.32;2.30;;;12.20;91.70;;;;;;6282652;22;20328;-75
2021/08/28 06:26:54;;;;;;;7.83;1.60;;;12.20;91.50;;;;;;6284948;22;20392;-74
2021/08/28 06:29:21;;;;;;;4.80;2.03;;;12.30;92.00;;;;;;6282504;22;20027;-74
2021/08/28 06:31:54;;;;;;;5.07;2.13;;;12.40;91.80;;;;;;6288110;22;20029;-73
2021/08/28 06:34:22;;;;;;;4.78;1.92;;;12.40;91.50;;;;;;6309298;22;20031;-74
2021/08/28 06:36:51;;;;;;;2.90;1.60;;;12.60;91.40;;;;;;6282988;22;20023;-73
2021/08/28 06:39:36;;;;;;;3.97;1.83;;;12.60;91.00;;;;;;6310885;22;20058;-74
2021/08/28 06:42:06;;;;;;;4.35;1.55;;;12.70;90.50;;;;;;6311510;22;20038;-74
2021/08/28 06:44:52;;;;;;;5.03;1.58;;;12.70;90.70;;;;;;6309763;22;20057;-73
2021/08/28 06:47:51;;;;;;;3.25;1.65;;;12.60;90.80;;;;;;6209763;22;20062;-73
2021/08/28 06:50:37;;;;;;;4.43;1.70;;;12.70;90.60;;;;;;6310299;22;20080;-74
2021/08/28 06:53:24;;;;;;;3.20;1.60;;;12.90;90.80;;;;;;6310939;22;20039;-73
2021/08/28 06:56:10;;;;;;;3.40;1.42;;;12.90;90.70;;;;;;6311896;22;20344;-74
2021/08/28 06:58:57;;;;;;;3.08;1.50;;;12.90;90.20;;;;;;6275504;22;20206;-75
2021/08/28 07:01:36;;;;;;;3.45;1.10;;;12.90;89.90;;;;;;6277875;22;20031;-74
2021/08/28 07:04:06;;;;;;;4.72;1.23;;;13.00;90.20;;;;;;6311794;22;20019;-75
2021/08/28 07:06:52;;;;;;;5.22;1.30;;;12.90;90.10;;;;;;6311034;22;20097;-73
2021/08/28 07:09:21;;;;;;;1.83;1.13;;;13.00;89.90;;;;;;6283895;22;20047;-75
2021/08/28 07:11:48;;;;;;;2.25;1.20;;;12.90;89.70;;;;;;6286037;22;20015;-74
2021/08/28 07:14:16;;;;;;;3.65;1.58;;;12.80;89.80;;;;;;6280884;22;20027;-73
2021/08/28 07:16:43;;;;;;;5.75;1.85;;;12.90;90.00;;;;;;6286213;22;20015;-73
2021/08/28 07:19:11;;;;;;;2.92;1.52;;;12.90;90.50;;;;;;6311550;22;20104;-73
2021/08/28 07:21:38;;;;;;;3.38;1.50;;;13.00;90.00;;;;;;6283877;22;20360;-73
2021/08/28 07:24:06;;;;;;;4.38;1.63;;;13.10;89.80;;;;;;6283065;22;20023;-72
2021/08/28 07:26:40;;;;;;;3.42;1.67;;;13.20;89.60;;;;;;6284154;22;20051;-73
2021/08/28 07:29:29;;;;;;;3.70;1.70;;;13.30;89.50;;;;;;6310497;22;20049;-74
2021/08/28 07:31:56;;;;;;;3.15;1.55;;;13.30;89.30;;;;;;6283686;22;20023;-74
2021/08/28 07:34:26;;;;;;;2.85;1.52;;;13.40;89.30;;;;;;6310538;22;20026;-74
2021/08/28 07:36:53;;;;;;;3.25;1.65;;;13.60;88.90;;;;;;6283685;22;20019;-74
2021/08/28 07:39:20;;;;;;;3.58;2.05;;;13.80;89.00;;;;;;6280787;22;20089;-74
2021/08/28 07:41:49;;;;;;;3.05;1.42;;;13.70;88.20;;;;;;6284739;22;20039;-74
2021/08/28 07:44:17;;;;;;;4.15;1.65;;;13.70;88.30;;;;;;6276538;22;20049;-73
2021/08/28 07:46:45;;;;;;;3.05;1.63;;;13.90;87.80;;;;;;6252050;22;20042;-74
2021/08/28 07:49:23;;;;;;;3.50;1.83;;;14.20;88.00;;;;;;6248916;22;20065;-74
2021/08/28 07:51:50;;;;;;;3.70;1.90;;;14.30;87.60;;;;;;6252908;22;20045;-74
2021/08/28 07:54:22;;;;;;;4.07;1.90;;;14.50;87.20;;;;;;6252579;22;20026;-74
2021/08/28 07:56:54;;;;;;;4.32;1.98;;;14.60;86.70;;;;;;6252430;22;20326;-74
2021/08/28 07:59:22;;;;;;;3.75;1.95;;;14.70;86.20;;;;;;6254417;22;20249;-74
2021/08/28 08:01:52;;;;;;;4.00;1.95;;;14.70;86.40;;;;;;6276065;22;20310;-74
2021/08/28 08:04:19;;;;;;;4.38;2.38;;;14.90;85.50;;;;;;6255630;22;20260;-74
2021/08/28 08:07:25;;;;;;;3.90;1.67;;;15.00;84.50;;;;;;6282226;22;20024;-74
2021/08/28 08:10:11;;;;;;;3.05;1.75;;;14.90;85.70;;;;;;6281289;22;20031;-74
2021/08/28 08:13:09;;;;;;;5.07;2.22;;;15.20;84.50;;;;;;6199666;22;20021;-74
2021/08/28 08:16:06;;;;;;;4.03;1.88;;;15.40;85.20;;;;;;6172519;22;20149;-74
2021/08/28 08:18:53;;;;;;;3.78;2.28;;;15.60;84.70;;;;;;6282485;22;20085;-74
2021/08/28 08:21:42;;;;;;;5.18;2.22;;;15.60;83.10;;;;;;6282812;22;20120;-74
2021/08/28 08:24:33;;;;;;;4.45;2.40;;;15.60;84.80;;;;;;6280137;22;20051;-73
2021/08/28 08:27:23;;;;;;;5.03;2.13;;;15.90;84.10;;;;;;6239053;22;20070;-73
2021/08/28 08:30:01;;;;;;;4.88;2.60;;;15.90;82.80;;;;;;6255406;22;20038;-73
2021/08/28 08:32:46;;;;;;;4.35;2.05;;;15.80;82.70;;;;;;6254380;22;20089;-73
2021/08/28 08:35:14;;;;;;;4.60;2.30;;;15.80;82.40;;;;;;6254742;22;20024;-74
2021/08/28 08:37:45;;;;;;;4.63;2.53;;;15.90;83.20;;;;;;6259937;22;20027;-73
2021/08/28 08:40:14;;;;;;;6.15;2.50;;;16.00;82.10;;;;;;6256325;22;20086;-73
2021/08/28 08:42:55;;;;;;;3.58;2.03;;;16.00;81.60;;;;;;6269923;22;20049;-73
2021/08/28 08:45:27;;;;;;;4.13;2.00;;;16.10;82.70;;;;;;6285555;22;20271;-74
2021/08/28 08:47:56;;;;;;;3.88;1.85;;;16.20;82.70;;;;;;6294802;22;20023;-75
2021/08/28 08:50:25;;;;;;;4.30;2.20;;;16.30;82.00;;;;;;6289538;22;20364;-75
2021/08/28 08:52:55;;;;;;;3.47;2.10;;;16.40;81.50;;;;;;6289067;22;20075;-75
2021/08/28 08:55:38;;;;;;;3.90;2.30;;;16.60;80.90;;;;;;6289697;22;20053;-75
2021/08/28 08:58:05;;;;;;;4.05;1.83;;;16.50;80.80;;;;;;6291507;22;20206;-75
2021/08/28 09:00:36;;;;;;;3.67;2.07;;;16.60;80.20;;;;;;6285155;22;20349;-73
2021/08/28 09:03:23;;;;;;;3.53;2.05;;;16.80;79.40;;;;;;6318679;22;20073;-75
2021/08/28 09:05:57;;;;;;;4.38;1.80;;;17.10;78.80;;;;;;6288995;22;20030;-74
2021/08/28 09:08:28;;;;;;;3.05;1.80;;;17.10;78.50;;;;;;6289866;22;20047;-73
2021/08/28 09:10:55;;;;;;;4.55;1.60;;;17.20;78.20;;;;;;6316686;22;20339;-74
2021/08/28 09:13:23;;;;;;;2.45;1.63;;;17.30;77.20;;;;;;6320032;22;20039;-74
2021/08/28 09:15:54;;;;;;;3.35;1.63;;;17.70;77.20;;;;;;6317213;22;20030;-74
2021/08/28 09:18:21;;;;;;;2.00;1.48;;;18.20;75.50;;;;;;6315313;22;20041;-74
2021/08/28 09:20:49;;;;;;;4.25;1.50;;;18.10;74.50;;;;;;6289515;22;20029;-74
2021/08/28 09:23:18;;;;;;;3.40;1.70;;;17.70;75.30;;;;;;6315938;22;20039;-74
2021/08/28 09:25:48;;;;;;;3.40;1.70;;;17.70;74.70;;;;;;6313902;22;20206;-73
2021/08/28 09:28:16;;;;;;;3.33;1.83;;;17.80;75.50;;;;;;6286319;22;20027;-73
2021/08/28 09:30:49;;;;;;;2.92;1.40;;;17.90;75.30;;;;;;6315240;22;20015;-73
2021/08/28 09:33:21;;;;;;;2.63;1.00;;;18.20;73.70;;;;;;6313124;22;20037;-74
2021/08/28 09:35:50;;;;;;;1.70;1.05;;;18.20;72.90;;;;;;6313079;22;20326;-74
2021/08/28 09:38:19;;;;;;;2.38;1.25;;;18.60;72.00;;;;;;6312096;22;20025;-74
2021/08/28 09:40:48;;;;;;;1.52;1.02;;;18.80;70.80;;;;;;6282741;22;20035;-74
2021/08/28 09:43:17;;;;;;;1.47;1.00;;;19.10;70.80;;;;;;6312408;22;20023;-72
2021/08/28 09:45:46;;;;;;;2.45;1.30;;;19.60;69.20;;;;;;6285270;22;20788;-72
2021/08/28 09:48:15;;;;;;;2.53;0.95;;;19.60;68.80;;;;;;6316744;22;20230;-73
2021/08/28 09:50:46;;;;;;;2.55;1.10;;;19.60;68.70;;;;;;6315136;22;20015;-74
2021/08/28 09:53:15;;;;;;;1.40;0.77;;;19.50;67.60;;;;;;6315191;22;20027;-73
2021/08/28 09:55:44;;;;;;;1.70;0.80;;;19.90;66.10;;;;;;6315224;22;20082;-74
2021/08/28 09:58:12;;;;;;;2.00;0.93;;;20.20;65.40;;;;;;6314952;22;20090;-74
2021/08/28 10:00:44;;;;;;;1.52;0.70;;;20.50;66.00;;;;;;6310170;22;20604;-73
2021/08/28 10:03:11;;;;;;;1.55;0.80;;;21.10;62.50;;;;;;6315200;22;20038;-73
2021/08/28 10:05:41;;;;;;;1.77;0.70;;;21.10;63.40;;;;;;6315947;22;20030;-72
2021/08/28 10:08:11;;;;;;;1.40;0.80;;;20.90;62.90;;;;;;6317504;22;20019;-72
2021/08/28 10:10:40;;;;;;;1.63;0.60;;;20.30;64.20;;;;;;6316363;22;20019;-73
2021/08/28 10:13:08;;;;;;;0.80;0.50;;;21.00;61.90;;;;;;6291200;22;20011;-73
2021/08/28 10:15:37;;;;;;;1.65;0.85;;;21.00;63.00;;;;;;6317807;22;20019;-74
2021/08/28 10:18:06;;;;;;;0.75;0.40;;;22.10;61.50;;;;;;6289318;22;20015;-74
2021/08/28 10:20:40;;;;;;;1.35;0.57;;;22.20;58.70;;;;;;6289747;22;20334;-75
2021/08/28 10:23:08;;;;;;;0.90;0.40;;;22.20;57.70;;;;;;6289765;22;20015;-74
2021/08/28 10:25:40;;;;;;;0.95;0.50;;;24.00;53.30;;;;;;6316459;22;20035;-73
2021/08/28 10:28:10;;;;;;;1.02;0.40;;;25.00;52.50;;;;;;6317455;22;20023;-74
2021/08/28 10:30:43;;;;;;;1.13;0.60;;;26.00;46.50;;;;;;6309312;22;20075;-73
2021/08/28 10:33:12;;;;;;;1.50;0.50;;;25.70;47.40;;;;;;6289838;22;20081;-74
2021/08/28 10:35:40;;;;;;;0.63;0.30;;;26.60;43.90;;;;;;6317343;22;20143;-73
2021/08/28 10:38:08;;;;;;;0.85;0.35;;;24.30;47.30;;;;;;6317360;22;20064;-74
2021/08/28 10:40:37;;;;;;;0.68;0.30;;;24.80;48.50;;;;;;6288909;22;20027;-74
2021/08/28 10:43:08;;;;;;;1.25;0.43;;;26.20;44.80;;;;;;6284896;22;20019;-74
2021/08/28 10:45:38;;;;;;;1.20;0.40;;;26.30;43.70;;;;;;6286404;22;20062;-74
2021/08/28 10:48:24;;;;;;;0.30;0.30;;;27.50;41.20;;;;;;6286735;22;20047;-74
2021/08/28 10:50:53;;;;;;;1.05;0.55;;;29.50;36.80;;;;;;6286646;22;20319;-74
2021/08/28 10:53:24;;;;;;;0.70;0.35;;;29.40;35.00;;;;;;6286859;22;20078;-74
2021/08/28 10:55:52;;;;;;;0.43;0.30;;;29.90;35.80;;;;;;6287055;22;20042;-73
2021/08/28 10:58:22;;;;;;;2.20;0.20;;;30.80;32.70;;;;;;6286400;22;20439;-74
2021/08/28 11:00:51;;;;;;;0.63;0.30;;;28.60;35.00;;;;;;6282599;22;20048;-74
2021/08/28 11:03:29;;;;;;;0.45;0.20;;;28.30;36.30;;;;;;6286665;22;20027;-74
2021/08/28 11:06:24;;;;;;;0.20;0.20;;;29.70;34.90;;;;;;6285278;22;20042;-74
2021/08/28 11:08:52;;;;;;;4.90;0.55;;;29.60;34.90;;;;;;6285198;22;20034;-74
2021/08/28 11:11:26;;;;;;;0.27;0.27;;;28.50;37.90;;;;;;6284975;22;20019;-74
2021/08/28 11:13:55;;;;;;;0.22;0.20;;;26.00;43.40;;;;;;6284101;22;20023;-74
2021/08/28 11:16:53;;;;;;;1.08;0.20;;;26.70;40.10;;;;;;6281795;22;20061;-74
2021/08/28 11:19:38;;;;;;;0.30;0.28;;;26.80;42.00;;;;;;6285079;22;20047;-74
2021/08/28 11:22:07;;;;;;;0.50;0.32;;;24.80;45.00;;;;;;6284777;22;20015;-74
2021/08/28 11:24:35;;;;;;;0.80;0.40;;;23.60;48.60;;;;;;6283766;22;20302;-74
2021/08/28 11:27:05;;;;;;;0.40;0.30;;;23.20;51.00;;;;;;6285050;22;20015;-74
2021/08/28 11:29:48;;;;;;;0.95;0.50;;;22.10;53.00;;;;;;6282235;22;20024;-73
2021/08/28 11:32:17;;;;;;;1.33;0.22;;;21.30;56.00;;;;;;6285534;22;20026;-75
2021/08/28 11:34:46;;;;;;;0.90;0.40;;;21.40;56.40;;;;;;6285133;22;20027;-73
2021/08/28 11:37:46;;;;;;;1.23;0.70;;;21.10;57.80;;;;;;6285672;22;20020;-73
2021/08/28 11:40:30;;;;;;;1.25;0.50;;;20.90;59.00;;;;;;6191663;23;20037;-73
2021/08/28 11:42:59;;;;;;;0.68;0.45;;;20.60;59.20;;;;;;6191264;23;20075;-73
2021/08/28 11:45:44;;;;;;;0.57;0.30;;;20.40;61.30;;;;;;6194117;23;20029;-73
2021/08/28 11:48:14;;;;;;;1.02;0.40;;;20.20;62.00;;;;;;6193947;23;20025;-73
2021/08/28 11:50:43;;;;;;;3.95;0.60;;;20.10;62.50;;;;;;6200814;22;20025;-73
2021/08/28 11:53:10;;;;;;;0.98;0.40;;;20.30;61.50;;;;;;6317699;22;20041;-73
2021/08/28 11:55:37;;;;;;;1.10;0.65;;;20.20;61.70;;;;;;6315249;22;20015;-74
2021/08/28 11:58:13;;;;;;;2.13;0.40;;;19.90;60.70;;;;;;6289698;22;20014;-74
2021/08/28 12:00:40;;;;;;;1.38;0.80;;;19.30;62.10;;;;;;6311881;22;20073;-74
2021/08/28 12:03:08;;;;;;;1.25;0.50;;;19.40;63.40;;;;;;6315864;22;20337;-73
2021/08/28 12:05:41;;;;;;;0.68;0.40;;;19.70;62.50;;;;;;6316064;22;20081;-73
2021/08/28 12:08:08;;;;;;;0.50;0.30;;;19.70;62.90;;;;;;6317444;22;20015;-73
2021/08/28 12:10:43;;;;;;;1.13;0.40;;;19.90;63.10;;;;;;6317471;22;21833;-73
2021/08/28 12:13:13;;;;;;;1.20;0.40;;;21.40;58.40;;;;;;6289759;22;20029;-73
2021/08/28 12:15:40;;;;;;;1.60;0.40;;;21.10;58.90;;;;;;6316063;22;20086;-74
2021/08/28 12:18:07;;;;;;;1.10;0.50;;;21.60;58.80;;;;;;6316691;22;20027;-73
2021/08/28 12:20:35;;;;;;;0.90;0.32;;;21.70;57.50;;;;;;6315819;22;20037;-73
2021/08/28 12:23:03;;;;;;;1.05;0.52;;;22.20;56.80;;;;;;6317512;22;20053;-74
2021/08/28 12:25:31;;;;;;;2.42;0.40;;;22.10;56.30;;;;;;6317562;22;20027;-74
2021/08/28 12:27:58;;;;;;;0.73;0.50;;;22.20;54.40;;;;;;6290851;22;20023;-73
2021/08/28 12:30:29;;;;;;;1.73;0.40;;;22.90;52.30;;;;;;6317170;22;20018;-73
2021/08/28 12:32:56;;;;;;;0.50;0.28;;;27.00;44.50;;;;;;6319351;22;20019;-73
2021/08/28 12:35:23;;;;;;;0.60;0.32;;;29.10;40.10;;;;;;6318605;22;20026;-74
2021/08/28 12:37:50;;;;;;;2.88;0.50;;;29.20;37.00;;;;;;6319087;22;20015;-73
2021/08/28 12:40:18;;;;;;;0.75;0.32;;;30.30;34.50;;;;;;6317606;22;20069;-73
2021/08/28 12:42:46;;;;;;;0.45;0.30;;;31.30;33.00;;;;;;6291280;22;20039;-73
2021/08/28 12:45:18;;;;;;;0.50;0.32;;;30.50;34.70;;;;;;6316776;22;20261;-73
2021/08/28 12:47:47;;;;;;;0.73;0.40;;;31.40;32.70;;;;;;6317266;22;20027;-73
2021/08/28 12:50:17;;;;;;;0.63;0.32;;;31.00;33.70;;;;;;6287964;22;20054;-74
2021/08/28 12:52:47;;;;;;;1.08;0.32;;;32.10;30.60;;;;;;6316144;22;20052;-74
2021/08/28 12:55:24;;;;;;;0.32;0.20;;;30.50;33.70;;;;;;6316045;22;20049;-73
2021/08/28 12:57:57;;;;;;;0.40;0.28;;;30.70;33.00;;;;;;6316203;22;20019;-73
2021/08/28 13:00:24;;;;;;;1.95;0.38;;;28.20;36.20;;;;;;6283584;22;20333;-74
2021/08/28 13:02:53;;;;;;;0.70;0.30;;;25.60;41.70;;;;;;6316697;22;20019;-73
2021/08/28 13:05:24;;;;;;;1.08;0.30;;;24.30;43.20;;;;;;6316078;22;20033;-73
2021/08/28 13:07:52;;;;;;;0.13;0.13;;;23.60;47.30;;;;;;6288406;22;20015;-73
2021/08/28 13:10:20;;;;;;;1.10;0.50;;;23.40;46.60;;;;;;6288510;22;20023;-73
2021/08/28 13:12:52;;;;;;;0.68;0.20;;;22.90;48.00;;;;;;6320676;22;20021;-74
2021/08/28 13:15:44;;;;;;;0.77;0.55;;;22.70;48.90;;;;;;6314755;22;20027;-73